createdAt,value
2017-07-25T00:00:12.332Z,32.07
2017-07-25T00:02:42.348Z,27.27
2017-07-25T00:05:17.588Z,26.10
2017-07-25T00:07:47.600Z,29.10
2017-07-25T00:10:17.821Z,31.57
2017-07-25T00:12:47.939Z,37.73
2017-07-25T00:15:18.163Z,39.43
2017-07-25T00:17:48.175Z,38.13
2017-07-25T00:20:20.551Z,36.10
2017-07-25T00:22:53.058Z,30.50
2017-07-25T00:25:23.867Z,25.43
2017-07-25T00:27:56.438Z,28.90
2017-07-25T00:30:26.758Z,30.10
2017-07-25T00:32:56.788Z,28.50
2017-07-25T00:35:41.222Z,28.00
2017-07-25T00:38:11.347Z,26.73
2017-07-25T00:40:41.460Z,29.33
2017-07-25T00:43:12.295Z,30.27
2017-07-25T00:45:42.414Z,29.03
2017-07-25T00:48:12.533Z,27.40
2017-07-25T00:51:16.750Z,34.80
2017-07-25T00:53:46.867Z,39.77
2017-07-25T00:56:16.989Z,45.33
2017-07-25T00:58:47.002Z,49.70
2017-07-25T01:01:17.120Z,59.30
2017-07-25T01:03:47.345Z,61.90
2017-07-25T01:06:17.459Z,61.73
2017-07-25T01:08:47.583Z,76.00
2017-07-25T01:11:42.483Z,77.50
2017-07-25T01:14:12.494Z,74.70
2017-07-25T01:16:42.508Z,44.93
2017-07-25T01:19:12.625Z,36.00
2017-07-25T01:21:42.846Z,34.13
2017-07-25T01:24:12.862Z,33.30
2017-07-25T01:26:43.183Z,36.13
2017-07-25T01:29:13.305Z,34.20
2017-07-25T01:31:43.522Z,33.30
2017-07-25T01:34:13.642Z,29.87
2017-07-25T01:36:43.810Z,35.93
2017-07-25T01:39:14.697Z,29.20
2017-07-25T01:42:09.187Z,26.57
2017-07-25T01:44:42.002Z,31.30
2017-07-25T01:47:16.500Z,30.73
2017-07-25T01:49:51.936Z,26.97
2017-07-25T01:52:22.569Z,29.10
2017-07-25T01:54:55.771Z,30.60
2017-07-25T01:57:29.626Z,31.63
2017-07-25T02:00:05.249Z,34.30
2017-07-25T02:02:37.416Z,34.37
2017-07-25T02:05:07.594Z,45.10
2017-07-25T02:07:37.610Z,50.63
2017-07-25T02:10:31.997Z,48.30
2017-07-25T02:13:01.948Z,45.27
2017-07-25T02:15:32.139Z,44.10
2017-07-25T02:18:03.174Z,38.17
2017-07-25T02:20:33.941Z,38.80
2017-07-25T02:23:04.829Z,40.00
2017-07-25T02:25:59.683Z,40.70
2017-07-25T02:28:32.837Z,40.40
2017-07-25T02:31:02.944Z,37.93
2017-07-25T02:33:33.266Z,39.37
2017-07-25T02:36:03.490Z,32.93
2017-07-25T02:38:33.605Z,35.87
2017-07-25T02:41:03.725Z,40.23
2017-07-25T02:43:34.530Z,34.37
2017-07-25T02:46:32.795Z,33.53
2017-07-25T02:49:04.750Z,32.80
2017-07-25T02:52:04.723Z,35.20
2017-07-25T02:54:35.659Z,32.90
2017-07-25T02:57:05.771Z,39.67
2017-07-25T02:59:35.895Z,36.40
2017-07-25T03:02:20.134Z,32.30
2017-07-25T03:04:50.161Z,37.70
2017-07-25T03:07:20.377Z,30.90
2017-07-25T03:09:50.501Z,38.27
2017-07-25T03:12:26.177Z,32.43
2017-07-25T03:14:56.370Z,37.87
2017-07-25T03:17:26.489Z,37.90
2017-07-25T03:19:56.496Z,32.33
2017-07-25T03:22:27.281Z,39.13
2017-07-25T03:25:01.702Z,33.90
2017-07-25T03:27:32.002Z,38.80
2017-07-25T03:30:06.284Z,35.37
2017-07-25T03:32:37.229Z,39.93
2017-07-25T03:35:07.116Z,36.37
2017-07-25T03:37:38.077Z,35.90
2017-07-25T03:40:08.198Z,37.83
2017-07-25T03:42:48.245Z,37.70
2017-07-25T03:45:18.260Z,39.80
2017-07-25T03:47:48.190Z,31.70
2017-07-25T03:50:23.417Z,39.57
2017-07-25T03:52:53.534Z,43.00
2017-07-25T03:55:23.505Z,39.40
2017-07-25T03:57:53.666Z,37.07
2017-07-25T04:00:23.679Z,37.47
2017-07-25T04:02:53.700Z,42.17
2017-07-25T04:05:23.918Z,46.17
2017-07-25T04:07:54.754Z,38.40
2017-07-25T04:10:24.983Z,37.70
2017-07-25T04:12:55.091Z,44.53
2017-07-25T04:15:25.214Z,39.73
2017-07-25T04:17:55.227Z,35.80
2017-07-25T04:20:25.344Z,37.10
2017-07-25T04:22:55.462Z,40.37
2017-07-25T04:25:25.582Z,39.97
2017-07-25T04:27:55.802Z,37.13
2017-07-25T04:30:25.980Z,36.90
2017-07-25T04:33:01.161Z,35.77
2017-07-25T04:35:31.280Z,37.80
2017-07-25T04:38:01.501Z,37.70
2017-07-25T04:40:31.486Z,39.83
2017-07-25T04:43:02.353Z,41.30
2017-07-25T04:45:32.321Z,37.37
2017-07-25T04:48:02.277Z,36.97
2017-07-25T04:50:32.292Z,36.77
2017-07-25T04:53:02.413Z,33.40
2017-07-25T04:55:32.529Z,32.87
2017-07-25T04:58:02.452Z,31.97
2017-07-25T05:00:32.663Z,37.90
2017-07-25T05:03:02.680Z,40.87
2017-07-25T05:05:32.696Z,39.57
2017-07-25T05:08:02.819Z,37.87
2017-07-25T05:10:32.932Z,37.87
2017-07-25T05:13:03.153Z,48.27
2017-07-25T05:15:33.272Z,50.67
2017-07-25T05:18:07.388Z,44.67
2017-07-25T05:20:37.397Z,25.83
2017-07-25T05:23:07.515Z,23.53
2017-07-25T05:25:37.634Z,23.90
2017-07-25T05:28:07.753Z,19.67
2017-07-25T05:30:37.706Z,16.40
2017-07-25T05:33:07.680Z,16.23
2017-07-25T05:35:38.362Z,17.77
2017-07-25T05:38:44.068Z,17.73
2017-07-25T05:41:14.945Z,16.57
2017-07-25T05:43:47.450Z,19.47
2017-07-25T05:46:19.918Z,20.67
2017-07-25T05:48:50.478Z,19.23
2017-07-25T05:51:20.494Z,20.50
2017-07-25T05:53:51.642Z,19.87
2017-07-25T05:56:21.556Z,21.20
2017-07-25T05:58:51.770Z,19.67
2017-07-25T06:01:21.890Z,22.60
2017-07-25T06:03:52.119Z,18.07
2017-07-25T06:06:22.228Z,20.30
2017-07-25T06:08:52.172Z,20.00
2017-07-25T06:11:22.261Z,20.63
2017-07-25T06:13:52.582Z,21.03
2017-07-25T06:16:22.700Z,19.70
2017-07-25T06:18:53.743Z,23.00
2017-07-25T06:21:52.634Z,19.33
2017-07-25T06:24:22.649Z,24.60
2017-07-25T06:26:52.768Z,19.33
2017-07-25T06:29:22.886Z,21.73
2017-07-25T06:31:53.003Z,21.10
2017-07-25T06:34:23.122Z,20.13
2017-07-25T06:36:53.241Z,26.53
2017-07-25T06:39:23.358Z,23.97
2017-07-25T06:41:53.289Z,30.60
2017-07-25T06:44:23.288Z,28.00
2017-07-25T06:46:53.408Z,27.93
2017-07-25T06:49:23.524Z,40.43
2017-07-25T06:51:53.642Z,36.27
2017-07-25T06:54:23.761Z,36.30
2017-07-25T06:57:13.334Z,34.80
2017-07-25T06:59:43.453Z,37.70
2017-07-25T07:02:13.469Z,35.77
2017-07-25T07:04:43.588Z,36.50
2017-07-25T07:07:13.705Z,36.27
2017-07-25T07:09:43.829Z,31.57
2017-07-25T07:12:14.043Z,38.93
2017-07-25T07:14:44.373Z,41.33
2017-07-25T07:17:14.590Z,39.70
2017-07-25T07:19:44.706Z,38.63
2017-07-25T07:22:44.828Z,36.97
2017-07-25T07:25:14.949Z,38.27
2017-07-25T07:27:45.171Z,36.77
2017-07-25T07:30:15.700Z,41.57
2017-07-25T07:32:46.739Z,38.90
2017-07-25T07:35:16.860Z,39.97
2017-07-25T07:37:47.072Z,42.93
2017-07-25T07:40:17.090Z,41.87
2017-07-25T07:42:47.207Z,40.17
2017-07-25T07:45:17.325Z,33.07
2017-07-25T07:47:47.340Z,32.43
2017-07-25T07:50:18.805Z,42.83
2017-07-25T07:52:49.959Z,36.93
2017-07-25T07:55:20.968Z,33.67
2017-07-25T07:57:53.281Z,35.03
2017-07-25T08:00:24.644Z,29.73
2017-07-25T08:03:10.396Z,33.97
2017-07-25T08:05:41.034Z,29.30
2017-07-25T08:08:24.158Z,25.43
2017-07-25T08:10:54.246Z,26.20
2017-07-25T08:13:34.298Z,23.73
2017-07-25T08:16:04.417Z,22.03
2017-07-25T08:18:34.432Z,19.93
2017-07-25T08:21:04.447Z,24.40
2017-07-25T08:23:34.461Z,36.17
2017-07-25T08:26:04.479Z,29.00
2017-07-25T08:28:58.761Z,25.63
2017-07-25T08:31:28.881Z,25.83
2017-07-25T08:33:58.873Z,29.40
2017-07-25T08:36:29.629Z,24.47
2017-07-25T08:38:59.640Z,25.77
2017-07-25T08:41:29.764Z,26.80
2017-07-25T08:43:59.780Z,26.93
2017-07-25T08:46:35.656Z,23.00
2017-07-25T08:49:07.783Z,20.37
2017-07-25T08:51:41.018Z,23.00
2017-07-25T08:54:12.756Z,25.07
2017-07-25T08:56:42.768Z,29.00
2017-07-25T08:59:19.505Z,26.00
2017-07-25T09:01:51.657Z,29.00
2017-07-25T09:04:26.050Z,27.70
2017-07-25T09:06:56.939Z,27.17
2017-07-25T09:09:27.687Z,33.97
2017-07-25T09:11:57.807Z,29.13
2017-07-25T09:14:31.108Z,31.60
2017-07-25T09:17:02.710Z,29.83
2017-07-25T09:19:36.941Z,30.67
2017-07-25T09:22:08.276Z,31.60
2017-07-25T09:24:39.152Z,30.40
2017-07-25T09:27:10.657Z,26.73
2017-07-25T09:29:41.517Z,30.80
2017-07-25T09:32:13.757Z,32.63
2017-07-25T09:34:45.121Z,32.90
2017-07-25T09:37:20.292Z,34.73
2017-07-25T09:39:50.305Z,26.27
2017-07-25T09:42:20.935Z,26.63
2017-07-25T09:44:50.951Z,24.83
2017-07-25T09:47:21.072Z,25.63
2017-07-25T09:49:51.084Z,21.80
2017-07-25T09:52:21.120Z,21.83
2017-07-25T09:54:51.222Z,24.37
2017-07-25T09:57:21.441Z,21.30
2017-07-25T09:59:51.560Z,23.53
2017-07-25T10:02:21.780Z,19.50
2017-07-25T10:04:52.016Z,20.50
2017-07-25T10:07:23.297Z,24.50
2017-07-25T10:09:54.691Z,34.87
2017-07-25T10:12:24.915Z,25.30
2017-07-25T10:14:54.931Z,68.60
2017-07-25T10:17:25.055Z,35.10
2017-07-25T10:19:55.170Z,26.00
2017-07-25T10:22:25.283Z,28.97
2017-07-25T10:24:55.507Z,25.83
2017-07-25T10:27:27.465Z,28.80
2017-07-25T10:30:02.909Z,27.97
2017-07-25T10:32:34.838Z,26.43
2017-07-25T10:35:28.745Z,24.93
2017-07-25T10:38:06.477Z,23.77
2017-07-25T10:40:36.663Z,23.97
2017-07-25T10:43:06.781Z,22.90
2017-07-25T10:45:36.900Z,22.93
2017-07-25T10:48:07.020Z,22.67
2017-07-25T10:50:37.239Z,23.27
2017-07-25T10:53:07.255Z,25.10
2017-07-25T10:55:37.475Z,32.23
2017-07-25T10:58:43.066Z,30.47
2017-07-25T11:01:14.277Z,27.13
2017-07-25T11:03:44.625Z,31.87
2017-07-25T11:06:15.849Z,32.13
2017-07-25T11:08:47.296Z,38.10
2017-07-25T11:11:17.637Z,32.60
2017-07-25T11:13:48.830Z,34.10
2017-07-25T11:16:19.101Z,35.17
2017-07-25T11:18:49.604Z,36.20
2017-07-25T11:21:19.857Z,32.33
2017-07-25T11:23:50.321Z,30.60
2017-07-25T11:26:21.341Z,27.63
2017-07-25T11:28:51.792Z,24.90
2017-07-25T11:31:22.909Z,32.50
2017-07-25T11:33:53.201Z,33.60
2017-07-25T11:36:23.732Z,29.67
2017-07-25T11:38:54.216Z,30.00
2017-07-25T11:41:25.513Z,31.00
2017-07-25T11:43:55.705Z,29.87
2017-07-25T11:46:25.813Z,30.03
2017-07-25T11:48:56.850Z,27.53
2017-07-25T11:51:27.901Z,25.97
2017-07-25T11:53:59.089Z,25.70
2017-07-25T11:56:29.552Z,27.87
2017-07-25T11:59:00.075Z,31.80
2017-07-25T12:01:30.506Z,27.20
2017-07-25T12:04:04.150Z,24.20
2017-07-25T12:06:37.838Z,25.53
2017-07-25T12:09:09.357Z,26.47
2017-07-25T12:11:50.680Z,30.17
2017-07-25T12:14:21.929Z,28.40
2017-07-25T12:16:52.325Z,28.53
2017-07-25T12:19:23.033Z,29.90
2017-07-25T12:21:53.292Z,33.60
2017-07-25T12:24:23.634Z,25.80
2017-07-25T12:26:54.754Z,24.60
2017-07-25T12:29:25.205Z,26.40
2017-07-25T12:31:56.347Z,30.83
2017-07-25T12:34:26.586Z,29.00
2017-07-25T12:36:58.123Z,27.83
2017-07-25T12:39:28.770Z,31.87
2017-07-25T12:42:00.102Z,29.33
2017-07-25T12:44:30.498Z,24.63
2017-07-25T12:47:00.945Z,24.63
2017-07-25T12:49:31.306Z,26.90
2017-07-25T12:52:01.878Z,24.70
2017-07-25T12:54:32.237Z,26.60
2017-07-25T12:57:03.557Z,30.63
2017-07-25T12:59:34.046Z,27.50
2017-07-25T13:02:15.647Z,30.40
2017-07-25T13:04:46.273Z,27.40
2017-07-25T13:07:16.575Z,25.67
2017-07-25T13:09:48.019Z,22.23
2017-07-25T13:12:18.350Z,28.50
2017-07-25T13:14:48.937Z,26.97
2017-07-25T13:17:19.303Z,26.60
2017-07-25T13:19:49.662Z,24.10
2017-07-25T13:22:20.153Z,25.03
2017-07-25T13:24:56.602Z,24.00
2017-07-25T13:27:26.924Z,23.50
2017-07-25T13:29:57.358Z,23.97
2017-07-25T13:32:28.006Z,22.50
2017-07-25T13:34:59.971Z,23.27
2017-07-25T13:37:30.940Z,24.63
2017-07-25T13:40:04.155Z,25.73
2017-07-25T13:42:34.645Z,23.77
2017-07-25T13:45:05.810Z,23.87
2017-07-25T13:47:36.725Z,22.10
2017-07-25T13:50:07.584Z,22.00
2017-07-25T13:52:45.635Z,26.20
2017-07-25T13:55:19.341Z,33.90
2017-07-25T13:57:49.612Z,29.20
2017-07-25T14:00:22.774Z,22.90
2017-07-25T14:02:53.613Z,25.63
2017-07-25T14:05:29.285Z,23.40
2017-07-25T14:07:59.976Z,29.43
2017-07-25T14:10:31.492Z,26.90
2017-07-25T14:13:01.878Z,28.90
2017-07-25T14:15:32.308Z,25.13
2017-07-25T14:18:03.795Z,28.50
2017-07-25T14:20:36.170Z,26.63
2017-07-25T14:23:06.999Z,21.50
2017-07-25T14:25:38.910Z,25.93
2017-07-25T14:28:09.361Z,25.10
2017-07-25T14:30:40.486Z,24.37
2017-07-25T14:33:11.140Z,27.60
2017-07-25T14:35:41.536Z,28.10
2017-07-25T14:38:11.877Z,27.80
2017-07-25T14:40:42.179Z,25.67
2017-07-25T14:43:16.711Z,25.17
2017-07-25T14:45:47.499Z,26.63
2017-07-25T14:48:20.584Z,25.93
2017-07-25T14:50:53.120Z,32.00
2017-07-25T14:53:23.315Z,27.30
2017-07-25T14:55:54.376Z,23.13
2017-07-25T14:58:31.006Z,23.40
2017-07-25T15:01:04.009Z,27.37
2017-07-25T15:03:35.261Z,27.40
2017-07-25T15:06:07.321Z,28.30
2017-07-25T15:08:38.155Z,26.93
2017-07-25T15:11:08.499Z,24.50
2017-07-25T15:13:39.088Z,29.63
2017-07-25T15:16:09.421Z,29.07
2017-07-25T15:18:39.661Z,31.70
2017-07-25T15:21:10.892Z,29.90
2017-07-25T15:23:41.113Z,30.03
2017-07-25T15:26:11.503Z,31.97
2017-07-25T15:28:41.817Z,28.27
2017-07-25T15:31:12.974Z,24.70
2017-07-25T15:33:43.260Z,27.73
2017-07-25T15:36:13.730Z,25.53
2017-07-25T15:38:43.952Z,28.17
2017-07-25T15:41:14.301Z,27.53
2017-07-25T15:43:44.773Z,27.40
2017-07-25T15:46:18.512Z,26.10
2017-07-25T15:48:49.443Z,25.70
2017-07-25T15:51:21.250Z,25.33
2017-07-25T15:53:51.885Z,26.47
2017-07-25T15:56:22.178Z,30.93
2017-07-25T15:58:52.468Z,28.47
2017-07-25T16:01:25.053Z,29.07
2017-07-25T16:03:55.955Z,26.80
2017-07-25T16:06:26.802Z,26.63
2017-07-25T16:08:59.221Z,23.07
2017-07-25T16:11:30.305Z,25.80
2017-07-25T16:14:00.669Z,23.57
2017-07-25T16:16:31.270Z,26.27
2017-07-25T16:19:01.521Z,28.53
2017-07-25T16:21:32.314Z,23.50
2017-07-25T16:24:03.069Z,27.00
2017-07-25T16:26:33.601Z,24.57
2017-07-25T16:29:03.954Z,28.33
2017-07-25T16:31:34.461Z,30.20
2017-07-25T16:34:05.025Z,31.60
2017-07-25T16:36:35.277Z,31.93
2017-07-25T16:39:05.881Z,29.23
2017-07-25T16:41:36.235Z,30.17
2017-07-25T16:44:06.838Z,30.47
2017-07-25T16:46:36.888Z,32.47
2017-07-25T16:49:07.061Z,32.30
2017-07-25T16:51:37.127Z,34.33
2017-07-25T16:54:07.438Z,32.37
2017-07-25T16:56:37.601Z,31.40
2017-07-25T16:59:08.161Z,31.40
2017-07-25T17:01:38.329Z,32.90
2017-07-25T17:04:09.412Z,30.07
2017-07-25T17:06:39.537Z,29.47
2017-07-25T17:09:10.465Z,35.40
2017-07-25T17:11:42.295Z,34.93
2017-07-25T17:14:14.622Z,33.73
2017-07-25T17:16:46.196Z,31.00
2017-07-25T17:19:20.004Z,29.17
2017-07-25T17:21:50.576Z,28.67
2017-07-25T17:24:21.424Z,25.73
2017-07-25T17:26:55.681Z,27.17
2017-07-25T17:29:27.715Z,26.47
2017-07-25T17:32:01.768Z,27.47
2017-07-25T17:34:32.047Z,27.60
2017-07-25T17:37:02.256Z,24.50
2017-07-25T17:39:32.672Z,28.93
2017-07-25T17:42:03.111Z,25.73
2017-07-25T17:44:33.697Z,22.23
2017-07-25T17:47:04.329Z,24.47
2017-07-25T17:49:39.105Z,28.17
2017-07-25T17:52:10.048Z,25.67
2017-07-25T17:54:44.871Z,31.77
2017-07-25T17:57:16.539Z,31.00
2017-07-25T17:59:46.860Z,25.27
2017-07-25T18:02:17.105Z,20.97
2017-07-25T18:04:47.493Z,27.77
2017-07-25T18:07:18.053Z,26.20
2017-07-25T18:09:48.632Z,23.90
2017-07-25T18:12:19.211Z,25.30
2017-07-25T18:14:49.687Z,25.20
2017-07-25T18:17:21.572Z,26.10
2017-07-25T18:19:52.356Z,27.50
2017-07-25T18:22:26.160Z,29.87
2017-07-25T18:24:57.198Z,35.60
2017-07-25T18:27:29.543Z,28.90
2017-07-25T18:30:01.548Z,33.43
2017-07-25T18:32:32.464Z,30.50
2017-07-25T18:35:05.184Z,30.67
2017-07-25T18:37:35.583Z,30.73
2017-07-25T18:40:06.009Z,29.30
2017-07-25T18:42:37.261Z,34.33
2017-07-25T18:45:10.658Z,34.23
2017-07-25T18:47:43.580Z,31.53
2017-07-25T18:53:09.384Z,31.77
2017-07-25T18:55:40.285Z,32.10
2017-07-25T18:58:11.248Z,32.60
2017-07-25T19:00:43.066Z,32.27
2017-07-25T19:03:14.025Z,27.70
2017-07-25T19:05:44.926Z,32.60
2017-07-25T19:08:15.774Z,29.50
2017-07-25T19:10:46.740Z,32.90
2017-07-25T19:13:17.770Z,27.93
2017-07-25T19:15:48.778Z,31.13
2017-07-25T19:18:19.746Z,28.67
2017-07-25T19:20:51.571Z,25.57
2017-07-25T19:23:24.949Z,26.93
2017-07-25T19:25:56.505Z,33.07
2017-07-25T19:28:30.686Z,31.67
2017-07-25T19:31:01.601Z,28.77
2017-07-25T19:33:32.622Z,29.97
2017-07-25T19:36:04.422Z,29.23
2017-07-25T19:38:35.258Z,25.90
2017-07-25T19:41:06.325Z,33.30
2017-07-25T19:43:40.493Z,31.77
2017-07-25T19:46:15.068Z,29.90
2017-07-25T19:48:46.676Z,28.03
2017-07-25T19:51:20.529Z,25.87
2017-07-25T19:53:51.460Z,26.90
2017-07-25T19:56:22.375Z,30.30
2017-07-25T19:58:54.924Z,27.60
2017-07-25T20:01:28.772Z,26.57
2017-07-25T20:04:02.381Z,32.37
2017-07-25T20:06:36.093Z,28.37
2017-07-25T20:09:10.013Z,31.57
2017-07-25T20:11:41.628Z,27.47
2017-07-25T20:14:14.632Z,30.20
2017-07-25T20:16:48.772Z,37.27
2017-07-25T20:19:19.858Z,33.50
2017-07-25T20:21:53.092Z,36.67
2017-07-25T20:24:26.803Z,33.50
2017-07-25T20:26:58.392Z,35.53
2017-07-25T20:29:31.828Z,35.73
2017-07-25T20:32:02.667Z,34.60
2017-07-25T20:34:33.532Z,27.30
2017-07-25T20:37:04.397Z,27.20
2017-07-25T20:39:36.261Z,35.00
2017-07-25T20:42:09.485Z,28.33
2017-07-25T20:44:43.334Z,27.37
2017-07-25T20:47:14.441Z,34.53
2017-07-25T20:49:46.262Z,29.53
2017-07-25T20:52:17.195Z,33.17
2017-07-25T20:54:48.125Z,35.40
2017-07-25T20:57:19.174Z,31.53
2017-07-25T20:59:50.240Z,30.67
2017-07-25T21:02:21.254Z,35.97
2017-07-25T21:04:52.393Z,37.20
2017-07-25T21:07:23.464Z,32.40
2017-07-25T21:09:54.385Z,35.60
2017-07-25T21:12:25.353Z,36.37
2017-07-25T21:14:56.702Z,36.00
2017-07-25T21:17:28.146Z,36.20
2017-07-25T21:20:01.111Z,30.40
2017-07-25T21:22:32.718Z,31.10
2017-07-25T21:25:03.631Z,35.50
2017-07-25T21:27:34.550Z,33.03
2017-07-25T21:30:08.702Z,30.90
2017-07-25T21:32:43.697Z,33.47
2017-07-25T21:35:15.299Z,35.43
2017-07-25T21:37:48.356Z,36.13
2017-07-25T21:40:19.308Z,38.33
2017-07-25T21:42:50.363Z,34.07
2017-07-25T21:45:22.719Z,29.07
2017-07-25T21:47:56.741Z,36.90
2017-07-25T21:50:28.358Z,38.40
2017-07-25T21:52:59.773Z,40.07
2017-07-25T21:55:30.545Z,38.73
2017-07-25T21:58:01.392Z,35.53
2017-07-25T22:00:32.460Z,35.80
2017-07-25T22:03:14.299Z,36.00
2017-07-25T22:05:45.280Z,34.50
2017-07-25T22:08:16.228Z,34.07
2017-07-25T22:10:47.379Z,37.50
2017-07-25T22:13:18.385Z,35.33
2017-07-25T22:15:49.366Z,35.43
2017-07-25T22:18:20.318Z,31.73
2017-07-25T22:20:51.451Z,26.73
2017-07-25T22:23:22.495Z,29.20
2017-07-25T22:25:56.285Z,26.20
2017-07-25T22:28:30.165Z,33.97
2017-07-25T22:31:03.166Z,40.63
2017-07-25T22:33:36.201Z,37.33
2017-07-25T22:36:07.263Z,40.63
2017-07-25T22:38:38.186Z,37.30
2017-07-25T22:41:09.133Z,39.40
2017-07-25T22:43:40.006Z,39.50
2017-07-25T22:46:10.878Z,41.70
2017-07-25T22:48:41.803Z,43.70
2017-07-25T22:51:12.647Z,38.50
2017-07-25T22:53:43.410Z,38.83
2017-07-25T22:56:14.342Z,32.70
2017-07-25T22:58:45.068Z,33.23
2017-07-25T23:01:16.031Z,41.67
2017-07-25T23:03:46.841Z,37.93
2017-07-25T23:06:17.928Z,40.67
2017-07-25T23:08:48.851Z,41.90
2017-07-25T23:11:19.665Z,42.90
2017-07-25T23:13:50.515Z,41.20
2017-07-25T23:16:21.557Z,39.67
2017-07-25T23:18:52.460Z,41.93
2017-07-25T23:21:23.430Z,45.20
2017-07-25T23:23:54.430Z,49.30
2017-07-25T23:26:26.431Z,49.90
2017-07-25T23:28:57.478Z,43.70
2017-07-25T23:31:28.535Z,45.70
2017-07-25T23:33:59.564Z,47.87
2017-07-25T23:36:30.491Z,41.30
2017-07-25T23:39:01.265Z,47.13
2017-07-25T23:41:33.457Z,39.70
2017-07-25T23:44:06.413Z,39.70
2017-07-25T23:46:38.729Z,42.87
2017-07-25T23:49:10.642Z,35.80
2017-07-25T23:51:41.522Z,37.30
2017-07-25T23:54:13.523Z,37.70
2017-07-25T23:56:44.598Z,36.20
2017-07-25T23:59:15.639Z,33.43
